sensor_id;sensor_type;location;lat;lon;timestamp;P1;durP1;ratioP1;P2;durP2;ratioP2
73283;SDS011;61519;60.050;18.582;2022-07-21T00:01:09;9.07;;;4.25;;
73283;SDS011;61519;60.050;18.582;2022-07-21T00:03:35;7.57;;;4.17;;
73283;SDS011;61519;60.050;18.582;2022-07-21T00:06:01;9.50;;;4.60;;
73283;SDS011;61519;60.050;18.582;2022-07-21T00:08:26;7.13;;;4.32;;
73283;SDS011;61519;60.050;18.582;2022-07-21T00:10:52;8.03;;;3.93;;
73283;SDS011;61519;60.050;18.582;2022-07-21T00:13:18;8.73;;;3.87;;
73283;SDS011;61519;60.050;18.582;2022-07-21T00:15:43;8.23;;;4.38;;
73283;SDS011;61519;60.050;18.582;2022-07-21T00:18:09;9.13;;;4.20;;
73283;SDS011;61519;60.050;18.582;2022-07-21T00:20:35;7.78;;;3.97;;
73283;SDS011;61519;60.050;18.582;2022-07-21T00:23:00;6.83;;;4.13;;
73283;SDS011;61519;60.050;18.582;2022-07-21T00:25:26;10.17;;;4.30;;
73283;SDS011;61519;60.050;18.582;2022-07-21T00:27:51;8.55;;;4.05;;
73283;SDS011;61519;60.050;18.582;2022-07-21T00:30:17;7.73;;;4.33;;
73283;SDS011;61519;60.050;18.582;2022-07-21T00:32:42;7.53;;;4.30;;
73283;SDS011;61519;60.050;18.582;2022-07-21T00:35:08;8.90;;;4.10;;
73283;SDS011;61519;60.050;18.582;2022-07-21T00:37:35;9.38;;;4.60;;
73283;SDS011;61519;60.050;18.582;2022-07-21T00:40:02;7.80;;;4.05;;
73283;SDS011;61519;60.050;18.582;2022-07-21T00:42:29;6.93;;;3.97;;
73283;SDS011;61519;60.050;18.582;2022-07-21T00:44:55;9.98;;;4.15;;
73283;SDS011;61519;60.050;18.582;2022-07-21T00:47:30;9.00;;;4.68;;
73283;SDS011;61519;60.050;18.582;2022-07-21T00:49:57;12.00;;;4.07;;
73283;SDS011;61519;60.050;18.582;2022-07-21T00:52:24;7.30;;;4.05;;
73283;SDS011;61519;60.050;18.582;2022-07-21T00:54:50;9.87;;;4.30;;
73283;SDS011;61519;60.050;18.582;2022-07-21T00:57:16;6.90;;;4.25;;
73283;SDS011;61519;60.050;18.582;2022-07-21T00:59:42;6.80;;;4.13;;
73283;SDS011;61519;60.050;18.582;2022-07-21T01:02:09;9.20;;;4.25;;
73283;SDS011;61519;60.050;18.582;2022-07-21T01:04:34;6.50;;;4.13;;
73283;SDS011;61519;60.050;18.582;2022-07-21T01:07:01;9.00;;;4.43;;
73283;SDS011;61519;60.050;18.582;2022-07-21T01:09:27;7.72;;;4.18;;
73283;SDS011;61519;60.050;18.582;2022-07-21T01:11:53;8.77;;;4.90;;
73283;SDS011;61519;60.050;18.582;2022-07-21T01:14:18;8.80;;;4.68;;
73283;SDS011;61519;60.050;18.582;2022-07-21T01:16:44;7.03;;;4.23;;
73283;SDS011;61519;60.050;18.582;2022-07-21T01:19:09;7.10;;;4.50;;
73283;SDS011;61519;60.050;18.582;2022-07-21T01:21:36;9.13;;;4.57;;
73283;SDS011;61519;60.050;18.582;2022-07-21T01:24:06;8.68;;;4.72;;
73283;SDS011;61519;60.050;18.582;2022-07-21T01:26:39;7.60;;;4.15;;
73283;SDS011;61519;60.050;18.582;2022-07-21T01:29:08;8.02;;;4.22;;
73283;SDS011;61519;60.050;18.582;2022-07-21T01:31:35;9.10;;;4.57;;
73283;SDS011;61519;60.050;18.582;2022-07-21T01:34:00;8.23;;;4.65;;
73283;SDS011;61519;60.050;18.582;2022-07-21T01:36:26;8.87;;;4.23;;
73283;SDS011;61519;60.050;18.582;2022-07-21T01:38:51;8.10;;;4.60;;
73283;SDS011;61519;60.050;18.582;2022-07-21T01:41:35;8.25;;;4.65;;
73283;SDS011;61519;60.050;18.582;2022-07-21T01:44:03;8.63;;;4.40;;
73283;SDS011;61519;60.050;18.582;2022-07-21T01:46:34;10.55;;;4.78;;
73283;SDS011;61519;60.050;18.582;2022-07-21T01:49:01;11.13;;;4.65;;
73283;SDS011;61519;60.050;18.582;2022-07-21T01:51:27;8.88;;;4.50;;
73283;SDS011;61519;60.050;18.582;2022-07-21T01:53:53;8.27;;;4.63;;
73283;SDS011;61519;60.050;18.582;2022-07-21T01:56:19;8.05;;;4.63;;
73283;SDS011;61519;60.050;18.582;2022-07-21T01:58:46;9.27;;;4.83;;
73283;SDS011;61519;60.050;18.582;2022-07-21T02:01:12;9.10;;;4.35;;
73283;SDS011;61519;60.050;18.582;2022-07-21T02:03:38;9.77;;;4.90;;
73283;SDS011;61519;60.050;18.582;2022-07-21T02:06:04;8.87;;;4.47;;
73283;SDS011;61519;60.050;18.582;2022-07-21T02:08:30;9.73;;;4.53;;
73283;SDS011;61519;60.050;18.582;2022-07-21T02:10:56;8.70;;;4.40;;
73283;SDS011;61519;60.050;18.582;2022-07-21T02:13:22;12.00;;;4.53;;
73283;SDS011;61519;60.050;18.582;2022-07-21T02:15:47;9.43;;;4.37;;
73283;SDS011;61519;60.050;18.582;2022-07-21T02:18:13;8.35;;;5.03;;
73283;SDS011;61519;60.050;18.582;2022-07-21T02:20:38;8.50;;;4.73;;
73283;SDS011;61519;60.050;18.582;2022-07-21T02:23:04;8.13;;;4.63;;
73283;SDS011;61519;60.050;18.582;2022-07-21T02:25:29;8.65;;;4.60;;
73283;SDS011;61519;60.050;18.582;2022-07-21T02:27:55;8.03;;;4.20;;
73283;SDS011;61519;60.050;18.582;2022-07-21T02:30:20;8.17;;;4.50;;
73283;SDS011;61519;60.050;18.582;2022-07-21T02:32:46;8.90;;;4.70;;
73283;SDS011;61519;60.050;18.582;2022-07-21T02:35:11;8.27;;;4.70;;
73283;SDS011;61519;60.050;18.582;2022-07-21T02:37:37;9.73;;;4.43;;
73283;SDS011;61519;60.050;18.582;2022-07-21T02:40:03;8.00;;;4.68;;
73283;SDS011;61519;60.050;18.582;2022-07-21T02:42:29;9.20;;;4.87;;
73283;SDS011;61519;60.050;18.582;2022-07-21T02:44:55;9.05;;;4.75;;
73283;SDS011;61519;60.050;18.582;2022-07-21T02:47:20;8.20;;;4.20;;
73283;SDS011;61519;60.050;18.582;2022-07-21T02:49:45;7.07;;;4.67;;
73283;SDS011;61519;60.050;18.582;2022-07-21T02:52:12;8.70;;;4.63;;
73283;SDS011;61519;60.050;18.582;2022-07-21T02:54:38;8.57;;;4.23;;
73283;SDS011;61519;60.050;18.582;2022-07-21T02:57:03;10.57;;;4.75;;
73283;SDS011;61519;60.050;18.582;2022-07-21T02:59:29;8.03;;;4.70;;
73283;SDS011;61519;60.050;18.582;2022-07-21T03:01:54;7.23;;;4.30;;
73283;SDS011;61519;60.050;18.582;2022-07-21T03:04:20;7.18;;;4.53;;
73283;SDS011;61519;60.050;18.582;2022-07-21T03:06:45;7.80;;;4.10;;
73283;SDS011;61519;60.050;18.582;2022-07-21T03:09:11;8.13;;;4.57;;
73283;SDS011;61519;60.050;18.582;2022-07-21T03:11:36;8.87;;;4.70;;
73283;SDS011;61519;60.050;18.582;2022-07-21T03:14:02;8.30;;;4.70;;
73283;SDS011;61519;60.050;18.582;2022-07-21T03:16:27;7.73;;;4.13;;
73283;SDS011;61519;60.050;18.582;2022-07-21T03:18:53;9.65;;;5.05;;
73283;SDS011;61519;60.050;18.582;2022-07-21T03:21:19;8.13;;;4.90;;
73283;SDS011;61519;60.050;18.582;2022-07-21T03:23:44;8.80;;;5.28;;
73283;SDS011;61519;60.050;18.582;2022-07-21T03:26:13;7.75;;;4.93;;
73283;SDS011;61519;60.050;18.582;2022-07-21T03:28:40;8.10;;;4.60;;
73283;SDS011;61519;60.050;18.582;2022-07-21T03:31:06;8.60;;;5.00;;
73283;SDS011;61519;60.050;18.582;2022-07-21T03:33:32;13.82;;;5.47;;
73283;SDS011;61519;60.050;18.582;2022-07-21T03:35:58;8.90;;;5.07;;
73283;SDS011;61519;60.050;18.582;2022-07-21T03:38:24;7.70;;;4.75;;
73283;SDS011;61519;60.050;18.582;2022-07-21T03:40:49;6.93;;;4.90;;
73283;SDS011;61519;60.050;18.582;2022-07-21T03:43:15;8.43;;;4.83;;
73283;SDS011;61519;60.050;18.582;2022-07-21T03:45:41;8.35;;;4.50;;
73283;SDS011;61519;60.050;18.582;2022-07-21T03:48:07;9.68;;;4.93;;
73283;SDS011;61519;60.050;18.582;2022-07-21T03:50:34;8.25;;;4.82;;
73283;SDS011;61519;60.050;18.582;2022-07-21T03:53:00;9.00;;;5.70;;
73283;SDS011;61519;60.050;18.582;2022-07-21T03:55:26;9.80;;;5.00;;
73283;SDS011;61519;60.050;18.582;2022-07-21T03:57:57;10.13;;;5.38;;
73283;SDS011;61519;60.050;18.582;2022-07-21T04:00:25;8.65;;;5.38;;
73283;SDS011;61519;60.050;18.582;2022-07-21T04:02:53;9.50;;;5.33;;
73283;SDS011;61519;60.050;18.582;2022-07-21T04:05:19;8.73;;;4.80;;
73283;SDS011;61519;60.050;18.582;2022-07-21T04:07:45;8.32;;;5.13;;
73283;SDS011;61519;60.050;18.582;2022-07-21T04:10:12;7.93;;;4.47;;
73283;SDS011;61519;60.050;18.582;2022-07-21T04:12:38;8.07;;;4.35;;
73283;SDS011;61519;60.050;18.582;2022-07-21T04:15:05;8.07;;;5.22;;
73283;SDS011;61519;60.050;18.582;2022-07-21T04:17:31;8.88;;;4.78;;
73283;SDS011;61519;60.050;18.582;2022-07-21T04:19:57;10.87;;;5.37;;
73283;SDS011;61519;60.050;18.582;2022-07-21T04:22:22;8.47;;;4.50;;
73283;SDS011;61519;60.050;18.582;2022-07-21T04:24:48;8.27;;;4.40;;
73283;SDS011;61519;60.050;18.582;2022-07-21T04:27:13;9.82;;;4.82;;
73283;SDS011;61519;60.050;18.582;2022-07-21T04:29:39;8.10;;;4.23;;
73283;SDS011;61519;60.050;18.582;2022-07-21T04:32:05;8.07;;;4.85;;
73283;SDS011;61519;60.050;18.582;2022-07-21T04:34:30;7.97;;;4.63;;
73283;SDS011;61519;60.050;18.582;2022-07-21T04:36:56;7.97;;;4.40;;
73283;SDS011;61519;60.050;18.582;2022-07-21T04:39:21;8.40;;;4.72;;
73283;SDS011;61519;60.050;18.582;2022-07-21T04:41:47;8.33;;;4.87;;
73283;SDS011;61519;60.050;18.582;2022-07-21T04:44:12;7.97;;;4.07;;
73283;SDS011;61519;60.050;18.582;2022-07-21T04:46:38;8.38;;;4.25;;
73283;SDS011;61519;60.050;18.582;2022-07-21T04:49:04;8.30;;;4.10;;
73283;SDS011;61519;60.050;18.582;2022-07-21T04:51:29;11.35;;;4.82;;
73283;SDS011;61519;60.050;18.582;2022-07-21T04:53:55;7.65;;;4.47;;
73283;SDS011;61519;60.050;18.582;2022-07-21T04:56:20;8.53;;;4.50;;
73283;SDS011;61519;60.050;18.582;2022-07-21T04:58:46;8.70;;;5.10;;
73283;SDS011;61519;60.050;18.582;2022-07-21T05:01:11;7.17;;;4.37;;
73283;SDS011;61519;60.050;18.582;2022-07-21T05:03:37;6.72;;;4.40;;
73283;SDS011;61519;60.050;18.582;2022-07-21T05:06:02;9.52;;;4.82;;
73283;SDS011;61519;60.050;18.582;2022-07-21T05:08:27;6.27;;;4.17;;
73283;SDS011;61519;60.050;18.582;2022-07-21T05:10:54;10.47;;;5.00;;
73283;SDS011;61519;60.050;18.582;2022-07-21T05:13:19;7.47;;;4.30;;
73283;SDS011;61519;60.050;18.582;2022-07-21T05:15:45;8.13;;;4.70;;
73283;SDS011;61519;60.050;18.582;2022-07-21T05:18:10;6.90;;;4.60;;
73283;SDS011;61519;60.050;18.582;2022-07-21T05:20:36;7.15;;;4.50;;
73283;SDS011;61519;60.050;18.582;2022-07-21T05:23:01;6.93;;;4.50;;
73283;SDS011;61519;60.050;18.582;2022-07-21T05:25:27;7.37;;;4.50;;
73283;SDS011;61519;60.050;18.582;2022-07-21T05:27:53;8.10;;;4.45;;
73283;SDS011;61519;60.050;18.582;2022-07-21T05:30:19;6.97;;;4.18;;
73283;SDS011;61519;60.050;18.582;2022-07-21T05:32:45;7.07;;;3.97;;
73283;SDS011;61519;60.050;18.582;2022-07-21T05:35:10;9.27;;;5.32;;
73283;SDS011;61519;60.050;18.582;2022-07-21T05:37:40;7.30;;;4.60;;
73283;SDS011;61519;60.050;18.582;2022-07-21T05:40:06;8.07;;;4.10;;
73283;SDS011;61519;60.050;18.582;2022-07-21T05:42:34;7.20;;;4.68;;
73283;SDS011;61519;60.050;18.582;2022-07-21T05:45:00;6.93;;;4.30;;
73283;SDS011;61519;60.050;18.582;2022-07-21T05:47:26;10.45;;;4.40;;
73283;SDS011;61519;60.050;18.582;2022-07-21T05:49:51;6.50;;;3.87;;
73283;SDS011;61519;60.050;18.582;2022-07-21T05:52:17;6.15;;;4.10;;
73283;SDS011;61519;60.050;18.582;2022-07-21T05:54:43;7.27;;;4.13;;
73283;SDS011;61519;60.050;18.582;2022-07-21T05:57:08;6.43;;;4.13;;
73283;SDS011;61519;60.050;18.582;2022-07-21T05:59:34;6.07;;;4.20;;
73283;SDS011;61519;60.050;18.582;2022-07-21T06:01:59;7.88;;;4.35;;
73283;SDS011;61519;60.050;18.582;2022-07-21T06:04:25;5.97;;;4.15;;
73283;SDS011;61519;60.050;18.582;2022-07-21T06:06:50;6.97;;;4.30;;
73283;SDS011;61519;60.050;18.582;2022-07-21T06:09:17;6.85;;;4.75;;
73283;SDS011;61519;60.050;18.582;2022-07-21T06:11:43;7.43;;;4.45;;
73283;SDS011;61519;60.050;18.582;2022-07-21T06:14:09;5.50;;;3.80;;
73283;SDS011;61519;60.050;18.582;2022-07-21T06:16:34;6.63;;;3.60;;
73283;SDS011;61519;60.050;18.582;2022-07-21T06:19:00;6.90;;;4.00;;
73283;SDS011;61519;60.050;18.582;2022-07-21T06:21:26;5.85;;;4.55;;
73283;SDS011;61519;60.050;18.582;2022-07-21T06:23:52;6.03;;;4.55;;
73283;SDS011;61519;60.050;18.582;2022-07-21T06:26:18;6.00;;;4.40;;
73283;SDS011;61519;60.050;18.582;2022-07-21T06:28:44;5.97;;;4.60;;
73283;SDS011;61519;60.050;18.582;2022-07-21T06:31:09;6.67;;;5.10;;
73283;SDS011;61519;60.050;18.582;2022-07-21T06:33:35;6.43;;;5.47;;
73283;SDS011;61519;60.050;18.582;2022-07-21T06:36:00;6.17;;;5.30;;
73283;SDS011;61519;60.050;18.582;2022-07-21T06:38:26;6.90;;;6.20;;
73283;SDS011;61519;60.050;18.582;2022-07-21T06:40:51;9.07;;;7.40;;
73283;SDS011;61519;60.050;18.582;2022-07-21T06:43:17;7.38;;;6.68;;
73283;SDS011;61519;60.050;18.582;2022-07-21T06:45:42;8.93;;;7.00;;
73283;SDS011;61519;60.050;18.582;2022-07-21T06:48:08;8.50;;;7.70;;
73283;SDS011;61519;60.050;18.582;2022-07-21T06:50:34;8.52;;;7.72;;
73283;SDS011;61519;60.050;18.582;2022-07-21T06:53:00;9.10;;;8.27;;
73283;SDS011;61519;60.050;18.582;2022-07-21T06:55:26;9.97;;;9.07;;
73283;SDS011;61519;60.050;18.582;2022-07-21T06:57:52;10.40;;;9.40;;
73283;SDS011;61519;60.050;18.582;2022-07-21T07:00:18;11.35;;;10.45;;
73283;SDS011;61519;60.050;18.582;2022-07-21T07:02:44;12.40;;;11.30;;
73283;SDS011;61519;60.050;18.582;2022-07-21T07:05:10;12.50;;;11.48;;
73283;SDS011;61519;60.050;18.582;2022-07-21T07:07:35;12.50;;;11.30;;
73283;SDS011;61519;60.050;18.582;2022-07-21T07:10:01;12.80;;;11.80;;
73283;SDS011;61519;60.050;18.582;2022-07-21T07:12:27;14.45;;;13.15;;
73283;SDS011;61519;60.050;18.582;2022-07-21T07:14:53;14.02;;;12.93;;
73283;SDS011;61519;60.050;18.582;2022-07-21T07:17:18;14.90;;;13.70;;
73283;SDS011;61519;60.050;18.582;2022-07-21T07:19:45;14.10;;;13.00;;
73283;SDS011;61519;60.050;18.582;2022-07-21T07:22:11;13.27;;;12.18;;
73283;SDS011;61519;60.050;18.582;2022-07-21T07:24:36;12.70;;;11.63;;
73283;SDS011;61519;60.050;18.582;2022-07-21T07:27:02;9.88;;;8.85;;
73283;SDS011;61519;60.050;18.582;2022-07-21T07:29:27;8.20;;;7.40;;
73283;SDS011;61519;60.050;18.582;2022-07-21T07:31:54;7.32;;;6.60;;
73283;SDS011;61519;60.050;18.582;2022-07-21T07:34:20;7.65;;;5.38;;
73283;SDS011;61519;60.050;18.582;2022-07-21T07:36:46;9.10;;;5.40;;
73283;SDS011;61519;60.050;18.582;2022-07-21T07:39:12;6.47;;;4.70;;
73283;SDS011;61519;60.050;18.582;2022-07-21T07:41:40;6.50;;;4.80;;
73283;SDS011;61519;60.050;18.582;2022-07-21T07:44:06;5.60;;;5.00;;
73283;SDS011;61519;60.050;18.582;2022-07-21T07:46:32;7.25;;;4.70;;
73283;SDS011;61519;60.050;18.582;2022-07-21T07:48:57;7.70;;;5.10;;
73283;SDS011;61519;60.050;18.582;2022-07-21T07:51:24;10.00;;;5.55;;
73283;SDS011;61519;60.050;18.582;2022-07-21T07:53:49;7.83;;;5.90;;
73283;SDS011;61519;60.050;18.582;2022-07-21T07:56:15;6.73;;;5.90;;
73283;SDS011;61519;60.050;18.582;2022-07-21T07:58:40;9.27;;;6.45;;
73283;SDS011;61519;60.050;18.582;2022-07-21T08:01:06;9.03;;;8.23;;
73283;SDS011;61519;60.050;18.582;2022-07-21T08:03:31;8.07;;;7.37;;
73283;SDS011;61519;60.050;18.582;2022-07-21T08:05:57;9.20;;;8.27;;
73283;SDS011;61519;60.050;18.582;2022-07-21T08:08:28;10.57;;;8.50;;
73283;SDS011;61519;60.050;18.582;2022-07-21T08:10:54;8.98;;;8.18;;
73283;SDS011;61519;60.050;18.582;2022-07-21T08:13:20;9.10;;;7.77;;
73283;SDS011;61519;60.050;18.582;2022-07-21T08:15:46;10.32;;;8.15;;
73283;SDS011;61519;60.050;18.582;2022-07-21T08:18:12;7.97;;;7.28;;
73283;SDS011;61519;60.050;18.582;2022-07-21T08:20:38;6.60;;;5.70;;
73283;SDS011;61519;60.050;18.582;2022-07-21T08:23:04;7.43;;;5.88;;
73283;SDS011;61519;60.050;18.582;2022-07-21T08:25:30;7.18;;;6.18;;
73283;SDS011;61519;60.050;18.582;2022-07-21T08:27:55;8.53;;;7.33;;
73283;SDS011;61519;60.050;18.582;2022-07-21T08:30:21;7.73;;;6.47;;
73283;SDS011;61519;60.050;18.582;2022-07-21T08:32:47;8.48;;;5.88;;
73283;SDS011;61519;60.050;18.582;2022-07-21T08:35:12;7.67;;;6.13;;
73283;SDS011;61519;60.050;18.582;2022-07-21T08:37:38;8.27;;;6.80;;
73283;SDS011;61519;60.050;18.582;2022-07-21T08:40:05;9.80;;;9.00;;
73283;SDS011;61519;60.050;18.582;2022-07-21T08:42:32;9.98;;;8.98;;
73283;SDS011;61519;60.050;18.582;2022-07-21T08:44:58;11.53;;;10.63;;
73283;SDS011;61519;60.050;18.582;2022-07-21T08:47:24;12.68;;;11.68;;
73283;SDS011;61519;60.050;18.582;2022-07-21T08:49:50;15.82;;;14.52;;
73283;SDS011;61519;60.050;18.582;2022-07-21T08:52:16;15.43;;;14.13;;
73283;SDS011;61519;60.050;18.582;2022-07-21T08:54:43;14.27;;;13.20;;
73283;SDS011;61519;60.050;18.582;2022-07-21T08:57:09;16.08;;;14.85;;
73283;SDS011;61519;60.050;18.582;2022-07-21T08:59:34;15.03;;;13.70;;
73283;SDS011;61519;60.050;18.582;2022-07-21T09:02:00;15.83;;;14.53;;
73283;SDS011;61519;60.050;18.582;2022-07-21T09:04:29;15.60;;;14.40;;
73283;SDS011;61519;60.050;18.582;2022-07-21T09:06:59;16.00;;;14.80;;
73283;SDS011;61519;60.050;18.582;2022-07-21T09:09:30;16.27;;;15.07;;
73283;SDS011;61519;60.050;18.582;2022-07-21T09:11:57;17.55;;;16.27;;
73283;SDS011;61519;60.050;18.582;2022-07-21T09:14:24;19.40;;;17.95;;
73283;SDS011;61519;60.050;18.582;2022-07-21T09:16:56;17.67;;;16.48;;
73283;SDS011;61519;60.050;18.582;2022-07-21T09:19:33;16.67;;;15.47;;
73283;SDS011;61519;60.050;18.582;2022-07-21T09:22:13;16.60;;;15.30;;
73283;SDS011;61519;60.050;18.582;2022-07-21T09:24:43;16.60;;;15.40;;
73283;SDS011;61519;60.050;18.582;2022-07-21T09:29:47;18.23;;;16.92;;
73283;SDS011;61519;60.050;18.582;2022-07-21T09:32:39;17.20;;;15.67;;
73283;SDS011;61519;60.050;18.582;2022-07-21T09:37:31;17.00;;;15.60;;
73283;SDS011;61519;60.050;18.582;2022-07-21T09:39:58;16.33;;;15.13;;
73283;SDS011;61519;60.050;18.582;2022-07-21T09:42:29;15.32;;;14.02;;
73283;SDS011;61519;60.050;18.582;2022-07-21T09:44:58;17.42;;;15.95;;
73283;SDS011;61519;60.050;18.582;2022-07-21T09:47:27;16.23;;;14.88;;
73283;SDS011;61519;60.050;18.582;2022-07-21T09:49:54;16.70;;;15.40;;
73283;SDS011;61519;60.050;18.582;2022-07-21T09:52:22;15.60;;;14.37;;
73283;SDS011;61519;60.050;18.582;2022-07-21T09:54:47;15.20;;;14.07;;
73283;SDS011;61519;60.050;18.582;2022-07-21T09:57:15;15.95;;;14.60;;
73283;SDS011;61519;60.050;18.582;2022-07-21T09:59:45;14.98;;;13.63;;
73283;SDS011;61519;60.050;18.582;2022-07-21T10:02:15;14.00;;;12.83;;
73283;SDS011;61519;60.050;18.582;2022-07-21T10:04:45;15.02;;;13.93;;
73283;SDS011;61519;60.050;18.582;2022-07-21T10:07:12;12.52;;;11.43;;
73283;SDS011;61519;60.050;18.582;2022-07-21T10:09:38;13.68;;;12.57;;
73283;SDS011;61519;60.050;18.582;2022-07-21T10:12:04;12.30;;;11.20;;
73283;SDS011;61519;60.050;18.582;2022-07-21T10:14:30;13.65;;;12.43;;
73283;SDS011;61519;60.050;18.582;2022-07-21T10:16:56;12.68;;;11.57;;
73283;SDS011;61519;60.050;18.582;2022-07-21T10:24:53;11.55;;;10.65;;
73283;SDS011;61519;60.050;18.582;2022-07-21T10:27:19;12.27;;;11.03;;
73283;SDS011;61519;60.050;18.582;2022-07-21T10:32:25;11.80;;;10.70;;
73283;SDS011;61519;60.050;18.582;2022-07-21T10:34:56;11.90;;;9.85;;
73283;SDS011;61519;60.050;18.582;2022-07-21T10:40:05;9.20;;;8.30;;
73283;SDS011;61519;60.050;18.582;2022-07-21T10:42:32;9.38;;;8.40;;
73283;SDS011;61519;60.050;18.582;2022-07-21T10:44:57;9.50;;;8.60;;
73283;SDS011;61519;60.050;18.582;2022-07-21T10:47:23;8.70;;;7.90;;
73283;SDS011;61519;60.050;18.582;2022-07-21T10:49:57;7.70;;;6.90;;
73283;SDS011;61519;60.050;18.582;2022-07-21T10:57:39;8.85;;;5.90;;
73283;SDS011;61519;60.050;18.582;2022-07-21T11:00:28;8.43;;;5.65;;
73283;SDS011;61519;60.050;18.582;2022-07-21T11:02:58;6.32;;;5.32;;
73283;SDS011;61519;60.050;18.582;2022-07-21T11:05:29;6.53;;;5.00;;
73283;SDS011;61519;60.050;18.582;2022-07-21T11:10:46;8.55;;;5.35;;
73283;SDS011;61519;60.050;18.582;2022-07-21T11:13:13;7.82;;;4.97;;
73283;SDS011;61519;60.050;18.582;2022-07-21T11:15:59;9.73;;;5.38;;
73283;SDS011;61519;60.050;18.582;2022-07-21T11:18:31;6.75;;;4.90;;
73283;SDS011;61519;60.050;18.582;2022-07-21T11:21:01;8.98;;;4.70;;
73283;SDS011;61519;60.050;18.582;2022-07-21T11:24:01;7.18;;;5.22;;
73283;SDS011;61519;60.050;18.582;2022-07-21T11:26:23;8.27;;;5.97;;
73283;SDS011;61519;60.050;18.582;2022-07-21T11:29:03;7.00;;;5.43;;
73283;SDS011;61519;60.050;18.582;2022-07-21T11:31:29;8.77;;;6.38;;
73283;SDS011;61519;60.050;18.582;2022-07-21T11:33:55;8.27;;;5.13;;
73283;SDS011;61519;60.050;18.582;2022-07-21T11:36:24;15.47;;;5.43;;
73283;SDS011;61519;60.050;18.582;2022-07-21T11:39:03;10.90;;;4.57;;
73283;SDS011;61519;60.050;18.582;2022-07-21T11:41:31;8.25;;;5.00;;
73283;SDS011;61519;60.050;18.582;2022-07-21T11:43:58;8.10;;;4.72;;
73283;SDS011;61519;60.050;18.582;2022-07-21T11:46:23;7.00;;;4.50;;
73283;SDS011;61519;60.050;18.582;2022-07-21T11:48:59;8.63;;;4.63;;
73283;SDS011;61519;60.050;18.582;2022-07-21T11:51:31;7.20;;;4.70;;
73283;SDS011;61519;60.050;18.582;2022-07-21T11:53:57;5.85;;;4.30;;
73283;SDS011;61519;60.050;18.582;2022-07-21T11:56:22;8.60;;;5.07;;
73283;SDS011;61519;60.050;18.582;2022-07-21T11:58:48;6.03;;;4.57;;
73283;SDS011;61519;60.050;18.582;2022-07-21T12:01:14;7.45;;;4.57;;
73283;SDS011;61519;60.050;18.582;2022-07-21T12:03:49;9.60;;;4.68;;
73283;SDS011;61519;60.050;18.582;2022-07-21T12:06:15;9.07;;;5.10;;
73283;SDS011;61519;60.050;18.582;2022-07-21T12:08:42;6.72;;;4.40;;
73283;SDS011;61519;60.050;18.582;2022-07-21T12:11:09;13.73;;;5.90;;
73283;SDS011;61519;60.050;18.582;2022-07-21T12:13:56;10.35;;;5.75;;
73283;SDS011;61519;60.050;18.582;2022-07-21T12:16:23;10.75;;;5.10;;
73283;SDS011;61519;60.050;18.582;2022-07-21T12:18:49;9.23;;;4.57;;
73283;SDS011;61519;60.050;18.582;2022-07-21T12:21:14;9.20;;;4.82;;
73283;SDS011;61519;60.050;18.582;2022-07-21T12:23:40;17.60;;;6.10;;
73283;SDS011;61519;60.050;18.582;2022-07-21T12:26:06;8.73;;;4.80;;
73283;SDS011;61519;60.050;18.582;2022-07-21T12:28:41;8.27;;;4.60;;
73283;SDS011;61519;60.050;18.582;2022-07-21T12:31:11;9.27;;;4.90;;
73283;SDS011;61519;60.050;18.582;2022-07-21T12:33:39;6.90;;;5.70;;
73283;SDS011;61519;60.050;18.582;2022-07-21T12:36:06;10.95;;;5.30;;
73283;SDS011;61519;60.050;18.582;2022-07-21T12:41:13;9.75;;;5.07;;
73283;SDS011;61519;60.050;18.582;2022-07-21T12:43:39;11.98;;;5.00;;
73283;SDS011;61519;60.050;18.582;2022-07-21T12:46:09;8.20;;;4.33;;
73283;SDS011;61519;60.050;18.582;2022-07-21T12:48:37;6.70;;;4.75;;
73283;SDS011;61519;60.050;18.582;2022-07-21T12:51:04;8.25;;;4.53;;
73283;SDS011;61519;60.050;18.582;2022-07-21T12:53:35;12.43;;;5.60;;
73283;SDS011;61519;60.050;18.582;2022-07-21T12:56:05;9.32;;;4.88;;
73283;SDS011;61519;60.050;18.582;2022-07-21T12:58:31;9.63;;;4.28;;
73283;SDS011;61519;60.050;18.582;2022-07-21T13:00:57;7.55;;;4.15;;
73283;SDS011;61519;60.050;18.582;2022-07-21T13:03:22;6.50;;;4.73;;
73283;SDS011;61519;60.050;18.582;2022-07-21T13:05:48;11.00;;;5.17;;
73283;SDS011;61519;60.050;18.582;2022-07-21T13:08:13;9.25;;;5.45;;
73283;SDS011;61519;60.050;18.582;2022-07-21T13:10:39;9.03;;;4.60;;
73283;SDS011;61519;60.050;18.582;2022-07-21T13:13:04;11.50;;;5.20;;
73283;SDS011;61519;60.050;18.582;2022-07-21T13:15:30;8.23;;;4.77;;
73283;SDS011;61519;60.050;18.582;2022-07-21T13:17:55;8.27;;;5.28;;
73283;SDS011;61519;60.050;18.582;2022-07-21T13:20:20;9.87;;;5.20;;
73283;SDS011;61519;60.050;18.582;2022-07-21T13:22:46;8.77;;;5.23;;
73283;SDS011;61519;60.050;18.582;2022-07-21T13:25:12;10.68;;;5.88;;
73283;SDS011;61519;60.050;18.582;2022-07-21T13:27:38;11.48;;;5.32;;
73283;SDS011;61519;60.050;18.582;2022-07-21T13:30:04;9.75;;;5.57;;
73283;SDS011;61519;60.050;18.582;2022-07-21T13:32:35;6.32;;;4.60;;
73283;SDS011;61519;60.050;18.582;2022-07-21T13:35:02;7.03;;;4.80;;
73283;SDS011;61519;60.050;18.582;2022-07-21T13:37:28;7.28;;;4.70;;
73283;SDS011;61519;60.050;18.582;2022-07-21T13:39:54;9.65;;;6.32;;
73283;SDS011;61519;60.050;18.582;2022-07-21T13:42:19;13.10;;;4.80;;
73283;SDS011;61519;60.050;18.582;2022-07-21T13:44:45;13.03;;;5.37;;
73283;SDS011;61519;60.050;18.582;2022-07-21T13:47:10;8.65;;;4.68;;
73283;SDS011;61519;60.050;18.582;2022-07-21T13:49:36;7.05;;;5.15;;
73283;SDS011;61519;60.050;18.582;2022-07-21T13:52:01;9.43;;;4.30;;
73283;SDS011;61519;60.050;18.582;2022-07-21T13:54:27;10.33;;;5.07;;
73283;SDS011;61519;60.050;18.582;2022-07-21T13:56:52;16.42;;;5.57;;
73283;SDS011;61519;60.050;18.582;2022-07-21T13:59:18;7.83;;;5.00;;
73283;SDS011;61519;60.050;18.582;2022-07-21T14:01:43;8.53;;;5.67;;
73283;SDS011;61519;60.050;18.582;2022-07-21T14:04:09;11.80;;;5.00;;
73283;SDS011;61519;60.050;18.582;2022-07-21T14:06:34;10.20;;;5.20;;
73283;SDS011;61519;60.050;18.582;2022-07-21T14:09:00;7.33;;;5.40;;
73283;SDS011;61519;60.050;18.582;2022-07-21T14:11:25;7.82;;;5.10;;
73283;SDS011;61519;60.050;18.582;2022-07-21T14:13:53;7.80;;;5.05;;
73283;SDS011;61519;60.050;18.582;2022-07-21T14:16:19;8.95;;;5.40;;
73283;SDS011;61519;60.050;18.582;2022-07-21T14:18:44;8.57;;;4.57;;
73283;SDS011;61519;60.050;18.582;2022-07-21T14:21:10;8.98;;;5.50;;
73283;SDS011;61519;60.050;18.582;2022-07-21T14:23:36;12.67;;;4.73;;
73283;SDS011;61519;60.050;18.582;2022-07-21T14:26:01;10.07;;;5.32;;
73283;SDS011;61519;60.050;18.582;2022-07-21T14:28:27;11.63;;;5.43;;
73283;SDS011;61519;60.050;18.582;2022-07-21T14:30:53;10.52;;;5.32;;
73283;SDS011;61519;60.050;18.582;2022-07-21T14:33:18;10.18;;;5.15;;
73283;SDS011;61519;60.050;18.582;2022-07-21T14:35:45;11.75;;;5.50;;
73283;SDS011;61519;60.050;18.582;2022-07-21T14:38:10;9.50;;;5.13;;
73283;SDS011;61519;60.050;18.582;2022-07-21T14:40:36;8.25;;;6.03;;
73283;SDS011;61519;60.050;18.582;2022-07-21T14:43:03;11.03;;;4.43;;
73283;SDS011;61519;60.050;18.582;2022-07-21T14:45:28;8.93;;;5.03;;
73283;SDS011;61519;60.050;18.582;2022-07-21T14:47:56;10.93;;;5.18;;
73283;SDS011;61519;60.050;18.582;2022-07-21T14:50:22;7.85;;;5.13;;
73283;SDS011;61519;60.050;18.582;2022-07-21T14:52:49;6.95;;;4.55;;